CPX16 Details

Departure: Liège Airport (EBLG)
Arrival: Miami International Airport (KMIA) at N/A
Notes:


Current Weather Information
EBLG 171620Z 19011KT 4500 -RA FEW007 BKN010 18/17 Q1009 TEMPO 4000 BKN008
KMIA 171553Z 17007KT 10SM SCT035 BKN250 33/23 A3011 RMK AO2 SLP194 T03280228